»·PEaware :: AAL1524 KDEN-KJAC

AAL1524 :: KDEN-KJAC

FLIGHT INFORMATION

Flight Status: Arrived
Operator:
American Airlines
More flights by this operator :: More flights under this callsign
Pilot: Matteo S. (9898)
Aircraft: BOEING 737-800
(B738)
More flights by this aircraft type
Origin: KDEN Denver Intl
United States
Destination: KJAC Jackson Hole
United States
More flights between these airports :: More routes between these airports
Route: +YAMMI3 LAR DNW
File this flight plan on PilotEdge
Remarks:
Altitude:
(Current/Filed)
34,000ft
Speed:
(Current/Filed)
460kts
Departed: 05-May-18 02:18 PM
Arrived: 05-May-18 03:25 PM
Distance/Time
Traveled:
352nm/1:07
Distance/Time
To Go:
Arrived

Flight Plot

Page will automatically refresh every two minutes.


Map Options




Map Legend


Flown Route
Filed Route
Departure Airport
Arrival Airport
Navaid (VOR, NDB)
Fix

Horizontal Profiles

Position Reports

Time Latitude Longitude Heading Altitude Ground
Speed
05-May-18 13:55 39.858069 -104.676288 0 5439ft 0kts
05-May-18 13:56 39.858069 -104.676288 0 5439ft 0kts
05-May-18 13:57 39.858069 -104.676288 0 5439ft 0kts
05-May-18 13:58 39.858069 -104.676288 0 5439ft 0kts
05-May-18 13:59 39.858069 -104.676288 0 5439ft 0kts
05-May-18 14:00 39.858069 -104.676288 0 5439ft 0kts
05-May-18 14:01 39.858069 -104.676288 0 5439ft 0kts
05-May-18 14:02 39.858069 -104.676288 0 5439ft 0kts
05-May-18 14:03 39.858069 -104.676288 0 5439ft 0kts
05-May-18 14:04 39.858069 -104.676288 0 5439ft 0kts
05-May-18 14:05 39.858069 -104.676288 0 5439ft 0kts
05-May-18 14:06 39.857845 -104.676262 344 5439ft 2kts
05-May-18 14:07 39.857384 -104.675475 273 5439ft 2kts
05-May-18 14:08 39.857381 -104.675396 271 5439ft 0kts
05-May-18 14:09 39.857381 -104.675396 271 5439ft 0kts
05-May-18 14:10 39.857388 -104.675782 271 5439ft 7kts
05-May-18 14:11 39.857310 -104.679207 236 5439ft 2kts
05-May-18 14:12 39.856711 -104.681000 273 5439ft 1kts
05-May-18 14:13 39.856043 -104.683959 180 5439ft 14kts
05-May-18 14:14 39.851226 -104.684076 181 5439ft 15kts
05-May-18 14:15 39.845748 -104.684133 180 5439ft 20kts
05-May-18 14:16 39.841995 -104.684154 181 5439ft 16kts
05-May-18 14:17 39.840722 -104.688342 270 5439ft 65kts
05-May-18 14:18 39.847016 -104.742503 307 6541ft 204kts
05-May-18 14:19 39.869309 -104.810167 279 8490ft 247kts
05-May-18 14:20 39.908237 -104.894907 313 10828ft 289kts
05-May-18 14:21 39.986532 -104.947934 354 12743ft 352kts
05-May-18 14:22 40.085018 -104.934740 21 15948ft 370kts
05-May-18 14:23 40.171802 -104.854513 32 18786ft 390kts
05-May-18 14:24 40.273724 -104.809901 5 21339ft 394kts
05-May-18 14:25 40.383054 -104.816539 346 23612ft 399kts
05-May-18 14:26 40.494050 -104.842679 346 25713ft 408kts
05-May-18 14:27 40.597541 -104.900444 325 27580ft 410kts
05-May-18 14:28 40.691142 -104.988092 323 29211ft 416kts
05-May-18 14:29 40.779916 -105.084834 319 31386ft 404kts
05-May-18 14:30 40.863623 -105.179465 320 33486ft 389kts
05-May-18 14:31 40.945498 -105.272427 320 34332ft 388kts
05-May-18 14:32 41.026399 -105.364556 320 34355ft 383kts
05-May-18 14:33 41.107080 -105.455976 320 34364ft 382kts
05-May-18 14:34 41.187642 -105.547897 319 34369ft 381kts
05-May-18 14:35 41.267501 -105.639780 319 34370ft 379kts
05-May-18 14:36 41.344820 -105.734836 312 34370ft 380kts
05-May-18 14:37 41.410331 -105.845838 310 34370ft 380kts
05-May-18 14:38 41.474570 -105.957316 309 34370ft 378kts
05-May-18 14:39 41.538471 -106.068688 309 34364ft 378kts
05-May-18 14:40 41.602785 -106.180039 309 34363ft 377kts
05-May-18 14:41 41.648666 -106.307541 296 34362ft 384kts
05-May-18 14:42 41.690688 -106.439257 298 34360ft 382kts
05-May-18 14:44 41.736359 -106.567916 300 34360ft 382kts
05-May-18 14:45 41.788677 -106.691462 304 34356ft 383kts
05-May-18 14:46 41.844224 -106.814801 304 34363ft 385kts
05-May-18 14:47 41.904436 -106.931406 310 34361ft 380kts
05-May-18 14:48 41.970558 -107.042615 310 34359ft 380kts
05-May-18 14:49 42.036206 -107.153474 309 34355ft 378kts
05-May-18 14:50 42.101559 -107.264244 309 34348ft 379kts
05-May-18 14:51 42.167658 -107.375416 309 34342ft 379kts
05-May-18 14:52 42.233307 -107.486599 309 34335ft 380kts
05-May-18 14:53 42.298926 -107.598374 309 34328ft 380kts
05-May-18 14:54 42.364647 -107.710844 309 34321ft 380kts
05-May-18 14:55 42.430018 -107.823158 309 34314ft 380kts
05-May-18 14:56 42.495483 -107.936074 309 34307ft 380kts
05-May-18 14:57 42.560667 -108.048930 308 34297ft 381kts
05-May-18 14:58 42.625872 -108.162270 308 34289ft 381kts
05-May-18 14:59 42.691149 -108.276164 307 34282ft 381kts
05-May-18 15:00 42.756108 -108.389941 307 34277ft 381kts
05-May-18 15:01 42.820948 -108.503952 307 34268ft 381kts
05-May-18 15:02 42.885884 -108.618556 307 34255ft 381kts
05-May-18 15:03 42.950487 -108.733017 307 34255ft 381kts
05-May-18 15:04 43.015197 -108.848114 306 34262ft 381kts
05-May-18 15:05 43.079582 -108.963078 306 34269ft 381kts
05-May-18 15:06 43.142598 -109.076037 306 32049ft 380kts
05-May-18 15:07 43.210231 -109.197747 306 28379ft 408kts
05-May-18 15:08 43.277605 -109.319497 306 26478ft 395kts
05-May-18 15:09 43.343380 -109.438843 305 24582ft 389kts
05-May-18 15:10 43.408622 -109.557704 305 24331ft 390kts
05-May-18 15:11 43.473797 -109.676929 305 24333ft 390kts
05-May-18 15:12 43.539025 -109.796730 305 24335ft 390kts
05-May-18 15:13 43.604245 -109.917000 305 22896ft 395kts
05-May-18 15:14 43.670377 -110.039318 304 19696ft 395kts
05-May-18 15:15 43.733137 -110.156688 304 16488ft 365kts
05-May-18 15:16 43.789524 -110.262432 304 15174ft 317kts
05-May-18 15:17 43.833046 -110.365665 279 14050ft 306kts
05-May-18 15:18 43.843395 -110.479849 277 12200ft 290kts
05-May-18 15:19 43.859650 -110.583967 270 10976ft 252kts
05-May-18 15:20 43.814881 -110.636836 201 10433ft 213kts
05-May-18 15:21 43.760343 -110.662926 201 9425ft 208kts
05-May-18 15:22 43.708949 -110.688093 201 8375ft 181kts
05-May-18 15:23 43.665835 -110.709185 198 7490ft 144kts
05-May-18 15:24 43.626344 -110.728458 197 6679ft 149kts
05-May-18 15:25 43.599873 -110.741222 175 6459ft 18kts
05-May-18 15:26 43.600866 -110.739315 18 6459ft 9kts
05-May-18 15:27 43.602748 -110.737525 110 6459ft 5kts
05-May-18 15:28 43.602743 -110.737507 110 6459ft 0kts

Navigation Log

Ident Type
1. KDEN Airport
2. LAR Navaid
3. DNW Navaid
4. KJAC Airport